Latest Coastal Weather Observations for Gannett Cay

IDQ60701

Issued at 7:42 am EST Tuesday 17 January 2017 (issued every 10 minutes, with the page automatically refreshed every 10 minutes)

About coastal observations | Map of coastal stations | Coastal observations for QLD | Marine services | Other Formats
Station Details ID: 200831 Name: GANNET CAY Lat: -21.98 Lon: 152.47 Height: 2.3 m
Data from the previous 72 hours. | See also: Recent months for locations in Queensland
Date/Time
EST
Temp
°C
Wind Pressure Rain since
9am
mm
Weather Cloud Vis
km
Sea
Height
m
Swell
Dir  Spd
kts
Gust
kts
hPa Trend Height
m
Period
s
Dir
17/07:30am 27.6 ESE 17 19 1013.9 - - - - - - - - -
17/07:29am 27.6 ESE 17 19 1014.0 - - - - - - - - -
17/07:00am 27.6 ESE 16 19 1013.7 - - - - - - - - -
17/06:30am 27.5 ESE 17 19 1013.4 - - - - - - - - -
17/06:29am 27.5 ESE 17 - 1013.5 - - - - - - - - -
17/06:00am 27.3 ESE 17 19 1013.0 - - - - - - - - -
17/05:30am 27.2 E 18 22 1012.6 - - - - - - - - -
17/05:29am 27.1 E 17 - 1012.7 - - - - - - - - -
17/05:12am 26.4 E 17 27 1012.4 - - - - - - - - -
17/05:00am 26.9 ESE 18 21 1012.2 - - - - - - - - -
17/04:30am 27.0 ESE 19 21 1011.8 - - - - - - - - -
17/04:29am 27.0 ESE 19 - 1011.9 - - - - - - - - -
17/04:00am 27.3 E 19 21 1011.6 - - - - - - - - -
17/03:30am 27.1 ESE 19 21 1011.5 - - - - - - - - -
17/03:29am 27.2 ESE 20 - 1011.6 - - - - - - - - -
17/03:00am 27.1 E 17 19 1011.7 - - - - - - - - -
17/02:30am 27.2 E 15 17 1011.9 - - - - - - - - -
17/02:29am 27.2 E 15 - 1012.0 - - - - - - - - -
17/02:00am 27.3 ESE 16 18 1012.1 - - - - - - - - -
17/01:30am 27.3 ESE 15 16 1012.3 - - - - - - - - -
17/01:29am 27.3 ESE 14 - 1012.4 - - - - - - - - -
17/01:00am 27.2 ESE 14 16 1012.5 - - - - - - - - -
17/12:39am 26.6 ESE 18 25 1012.5 - - - - - - - - -
17/12:30am 27.0 ESE 1 3 1012.4 - - - - - - - - -
17/12:29am 27.0 ESE 1 - 1012.5 - - - - - - - - -
17/12:00am 27.2 ESE 13 16 1012.7 - - - - - - - - -
 
Date/Time
EST
Temp
°C
Wind Pressure Rain since
9am
mm
Weather Cloud Vis
km
Sea
Height
m
Swell
Dir  Spd
kts
Gust
kts
hPa Trend Height
m
Period
s
Dir
16/11:30pm 27.4 E 1 3 1013.0 - - - - - - - - -
16/11:29pm 27.4 E 1 - 1013.1 - - - - - - - - -
16/11:00pm 27.5 ESE 1 3 1013.0 - - - - - - - - -
16/10:33pm 27.5 ESE 16 19 1013.3 - - - - - - - - -
16/10:30pm 27.5 ESE 1 3 1013.3 - - - - - - - - -
16/10:29pm 27.4 ESE 1 - 1013.4 - - - - - - - - -
16/10:00pm 27.6 ESE 1 3 1013.2 - - - - - - - - -
16/09:30pm 27.6 ESE 1 3 1013.2 - - - - - - - - -
16/09:29pm 27.5 ESE 1 - 1013.3 - - - - - - - - -
16/09:00pm 27.5 ESE 1 4 1013.1 - - - - - - - - -
16/08:30pm 27.4 SE 1 3 1013.0 - - - - - - - - -
16/08:29pm 27.5 SE 1 - 1013.1 - - - - - - - - -
16/08:00pm 27.5 ESE 1 3 1012.8 - - - - - - - - -
16/07:30pm 27.5 ESE 1 3 1012.7 - - - - - - - - -
16/07:29pm 27.5 ESE 1 - 1012.8 - - - - - - - - -
16/07:00pm 27.6 ESE 14 17 1012.4 - - - - - - - - -
16/06:30pm 27.7 ESE 13 15 1012.1 - - - - - - - - -
16/06:29pm 27.7 ESE 13 - 1012.2 - - - - - - - - -
16/06:00pm 28.0 ESE 13 15 1011.7 - - - - - - - - -
16/05:30pm 28.6 ESE 11 13 1011.4 - - - - - - - - -
16/05:29pm 28.6 ESE 11 - 1011.5 - - - - - - - - -
16/05:00pm 28.5 ESE 12 14 1011.1 - - - - - - - - -
16/04:30pm 28.4 ESE 14 16 1010.8 - - - - - - - - -
16/04:29pm 28.4 ESE 13 - 1010.9 - - - - - - - - -
16/04:00pm 28.4 ESE 12 14 1010.8 - - - - - - - - -
16/03:30pm 28.4 ESE 14 16 1010.7 - - - - - - - - -
16/03:29pm 28.4 ESE 14 - 1010.8 - - - - - - - - -
16/03:00pm 28.4 ESE 13 15 1010.8 - - - - - - - - -
16/02:30pm 28.3 ESE 13 15 1010.8 - - - - - - - - -
16/02:29pm 28.2 ESE 13 - 1010.9 - - - - - - - - -
16/02:00pm 28.2 ESE 14 15 1010.9 - - - - - - - - -
16/01:30pm 27.9 E 13 14 1011.1 - - - - - - - - -
16/01:29pm 27.9 E 13 - 1011.2 - - - - - - - - -
16/01:00pm 27.8 E 12 13 1011.2 - - - - - - - - -
16/12:30pm 27.7 E 12 13 1011.4 - - - - - - - - -
16/12:29pm 27.7 E 12 - 1011.5 - - - - - - - - -
16/12:00pm 27.8 E 12 14 1011.6 - - - - - - - - -
16/11:30am 27.6 E 13 15 1011.8 - - - - - - - - -
16/11:29am 27.7 E 13 - 1011.9 - - - - - - - - -
16/11:00am 27.6 E 13 15 1012.0 - - - - - - - - -
16/10:30am 27.5 ENE 13 15 1012.0 - - - - - - - - -
16/10:29am 27.5 ENE 13 - 1012.1 - - - - - - - - -
16/10:00am 27.6 E 14 17 1012.1 - - - - - - - - -
16/09:30am 27.6 E 16 18 1011.9 - - - - - - - - -
16/09:29am 27.6 E 16 - 1012.0 - - - - - - - - -
16/09:00am 27.5 E 16 19 1011.8 - - - - - - - - -
16/08:30am 27.4 E 17 18 1011.7 - - - - - - - - -
16/08:29am 27.4 E 17 - 1011.8 - - - - - - - - -
16/08:00am 27.4 ENE 16 18 1011.5 - - - - - - - - -
16/07:30am 27.3 E 16 18 1011.2 - - - - - - - - -
16/07:29am 27.3 E 16 - 1011.3 - - - - - - - - -
16/07:00am 27.3 E 15 16 1011.1 - - - - - - - - -
16/06:30am 27.4 E 13 15 1010.7 - - - - - - - - -
16/06:29am 27.4 E 13 - 1010.8 - - - - - - - - -
16/06:00am 27.3 ENE 12 13 1010.5 - - - - - - - - -
16/05:30am 27.4 ENE 11 12 1010.2 - - - - - - - - -
16/05:29am 27.3 ENE 11 - 1010.3 - - - - - - - - -
16/05:00am 26.8 NE 9 11 1009.7 - - - - - - - - -
16/04:30am 25.9 NNE 9 11 1009.1 - - - - - - - - -
16/04:29am 25.9 NNE 9 - 1009.3 - - - - - - - - -
16/04:00am 25.0 ENE 15 18 1008.8 - - - - - - - - -
16/03:51am 25.8 ENE 16 18 1008.8 - - - - - - - - -
16/03:30am 26.3 NNE 7 8 1008.7 - - - - - - - - -
16/03:29am 26.3 NNE 7 - 1008.9 - - - - - - - - -
16/03:00am 25.7 NNE 10 11 1008.6 - - - - - - - - -
16/02:30am 25.9 NE 12 13 1008.9 - - - - - - - - -
16/02:29am 25.8 NNE 12 - 1009.1 - - - - - - - - -
16/02:00am 26.2 NE 11 13 1009.1 - - - - - - - - -
16/01:41am 25.9 NE 16 18 1009.3 - - - - - - - - -
16/01:30am 26.3 CALM 0 3 1009.5 - - - - - - - - -
16/01:29am 27.3 CALM 0 - 1009.6 - - - - - - - - -
16/01:00am 27.2 CALM 0 1 1009.6 - - - - - - - - -
16/12:30am 27.2 CALM 0 2 1009.7 - - - - - - - - -
16/12:29am 27.3 CALM 0 - 1009.8 - - - - - - - - -
16/12:00am 27.3 ENE 1 2 1010.0 - - - - - - - - -
 
Date/Time
EST
Temp
°C
Wind Pressure Rain since
9am
mm
Weather Cloud Vis
km
Sea
Height
m
Swell
Dir  Spd
kts
Gust
kts
hPa Trend Height
m
Period
s
Dir
15/11:30pm 27.3 ENE 1 2 1010.0 - - - - - - - - -
15/11:29pm 27.3 CALM 0 - 1010.1 - - - - - - - - -
15/11:00pm 27.3 CALM 0 2 1010.1 - - - - - - - - -
15/10:30pm 27.2 NE 10 11 1010.3 - - - - - - - - -
15/10:29pm 27.2 NE 10 - 1010.4 - - - - - - - - -
15/10:00pm 27.2 NE 11 12 1010.5 - - - - - - - - -
15/09:30pm 27.2 ENE 11 11 1010.4 - - - - - - - - -
15/09:29pm 27.2 ENE 11 - 1010.5 - - - - - - - - -
15/09:00pm 27.2 ENE 12 14 1010.0 - - - - - - - - -
15/08:30pm 27.2 NE 13 15 1009.8 - - - - - - - - -
15/08:29pm 27.2 NE 14 - 1009.8 - - - - - - - - -
15/08:00pm 27.1 NE 2 13 1009.5 - - - - - - - - -
15/07:30pm 27.1 ENE 1 15 1009.1 - - - - - - - - -
15/07:29pm 27.0 ENE 11 - 1009.3 - - - - - - - - -
15/07:00pm 26.9 ENE 14 15 1008.9 - - - - - - - - -
15/06:30pm 27.0 ENE 16 18 1008.4 - - - - - - - - -
15/06:29pm 27.0 ENE 16 - 1008.6 - - - - - - - - -
15/06:00pm 27.2 ENE 14 16 1007.8 - - - - - - - - -
15/05:30pm 28.0 NE 8 10 1007.5 - - - - - - - - -
15/05:29pm 28.0 NE 9 - 1007.7 - - - - - - - - -
15/05:00pm 28.1 NNE 8 8 1007.1 - - - - - - - - -
15/04:30pm 27.9 CALM 0 2 1006.7 - - - - - - - - -
15/04:29pm 27.9 CALM 0 - 1006.8 - - - - - - - - -
15/04:00pm 27.9 N 1 4 1006.6 - - - - - - - - -
15/03:30pm 27.9 CALM 0 3 1006.6 - - - - - - - - -
15/03:29pm 27.9 CALM 0 - 1006.8 - - - - - - - - -
15/03:00pm 27.9 CALM 0 4 1007.1 - - - - - - - - -
15/02:30pm 27.9 CALM 0 3 1007.6 - - - - - - - - -
15/02:29pm 27.9 CALM 0 - 1007.9 - - - - - - - - -
15/02:00pm 27.9 CALM 0 2 1007.9 - - - - - - - - -
15/01:30pm 27.8 N 1 2 1008.3 - - - - - - - - -
15/01:29pm 27.9 N 1 - 1008.5 - - - - - - - - -
15/01:00pm 27.9 N 1 9 1008.7 - - - - - - - - -
15/12:30pm 27.8 CALM 0 1 1008.7 - - - - - - - - -
15/12:29pm 27.7 CALM 0 - 1008.8 - - - - - - - - -
15/12:00pm 27.7 CALM 0 2 1008.6 - - - - - - - - -
15/11:30am 27.7 CALM 0 3 1008.9 - - - - - - - - -
15/11:29am 27.7 CALM 0 - 1009.2 - - - - - - - - -
15/11:00am 27.7 CALM 0 2 1009.0 - - - - - - - - -
15/10:30am 27.7 CALM 0 2 1009.1 - - - - - - - - -
15/10:29am 27.7 CALM 0 - 1009.3 - - - - - - - - -
15/10:00am 27.6 NNW 1 8 1008.9 - - - - - - - - -
15/09:30am 27.6 CALM 0 2 1008.7 - - - - - - - - -
15/09:29am 27.7 CALM 0 - 1008.9 - - - - - - - - -
15/09:00am 27.6 NNW 1 3 1009.0 - - - - - - - - -
15/08:30am 27.6 NNW 1 2 1009.0 - - - - - - - - -
15/08:29am 27.6 NNW 1 - 1009.2 - - - - - - - - -
15/08:00am 27.6 CALM 0 2 1009.0 - - - - - - - - -
15/07:30am 27.5 N 9 10 1008.9 - - - - - - - - -
15/07:29am 27.5 NNW 9 - 1009.1 - - - - - - - - -
15/07:00am 27.5 NNW 9 10 1008.7 - - - - - - - - -
15/06:30am 27.4 NNW 9 11 1008.5 - - - - - - - - -
15/06:29am 27.5 NNW 9 - 1008.7 - - - - - - - - -
15/06:00am 27.4 NNW 9 10 1008.4 - - - - - - - - -
15/05:30am 27.4 NNW 11 13 1008.3 - - - - - - - - -
15/05:29am 27.4 NNW 11 - 1008.5 - - - - - - - - -
15/05:00am 27.4 NNW 11 12 1008.0 - - - - - - - - -
15/04:30am 27.3 NNW 11 13 1007.7 - - - - - - - - -
15/04:29am 27.3 NNW 11 - 1007.8 - - - - - - - - -
15/04:00am 27.2 NNW 11 13 1007.3 - - - - - - - - -
15/03:30am 27.2 NNW 11 13 1007.1 - - - - - - - - -
15/03:29am 27.2 NNW 11 - 1007.3 - - - - - - - - -
15/03:00am 27.3 NNW 13 15 1006.9 - - - - - - - - -
15/02:30am 27.3 N 11 13 1007.0 - - - - - - - - -
15/02:29am 27.3 N 11 - 1007.2 - - - - - - - - -
15/02:00am 27.3 N 10 11 1007.6 - - - - - - - - -
15/01:30am 27.2 N 10 13 1007.7 - - - - - - - - -
15/01:29am 27.2 N 10 - 1007.9 - - - - - - - - -
15/01:00am 27.3 N 10 12 1007.9 - - - - - - - - -
15/12:30am 27.2 N 11 13 1008.1 - - - - - - - - -
15/12:29am 27.2 N 11 - 1008.3 - - - - - - - - -
15/12:00am 27.2 N 9 11 1008.4 - - - - - - - - -
 
Date/Time
EST
Temp
°C
Wind Pressure Rain since
9am
mm
Weather Cloud Vis
km
Sea
Height
m
Swell
Dir  Spd
kts
Gust
kts
hPa Trend Height
m
Period
s
Dir
14/11:30pm 27.3 N 10 11 1008.3 - - - - - - - - -
14/11:29pm 27.3 N 10 - 1008.5 - - - - - - - - -
14/11:00pm 27.4 N 9 11 1008.5 - - - - - - - - -
14/10:30pm 27.4 N 11 13 1008.4 - - - - - - - - -
14/10:29pm 27.4 N 11 - 1008.6 - - - - - - - - -
14/10:00pm 27.4 NNW 11 13 1008.5 - - - - - - - - -
14/09:29pm 27.4 NNW 12 - 1008.7 - - - - - - - - -
14/08:30pm 27.5 NNW 13 15 1008.0 - - - - - - - - -
14/08:29pm 27.5 NNW 13 - 1008.2 - - - - - - - - -
14/08:00pm 27.5 NNW 12 14 1007.8 - - - - - - - - -
14/07:30pm 27.5 NNW 10 11 1007.6 - - - - - - - - -
14/07:29pm 27.5 NNW 10 - 1007.8 - - - - - - - - -
14/07:00pm 27.5 N 11 13 1007.3 - - - - - - - - -
14/06:30pm 27.5 N 11 13 1007.2 - - - - - - - - -
14/06:29pm 27.5 N 12 - 1007.4 - - - - - - - - -
14/06:00pm 27.5 N 9 11 1007.0 - - - - - - - - -
14/05:30pm 27.4 N 6 7 1007.2 - - - - - - - - -
14/05:29pm 27.4 N 6 - 1007.4 - - - - - - - - -
14/05:00pm 27.4 NNW 6 7 1007.5 - - - - - - - - -
14/04:30pm 27.4 NNW 4 5 1007.8 - - - - - - - - -
14/04:29pm 27.3 NNW 4 - 1008.0 - - - - - - - - -
14/04:00pm 26.6 NNW 7 9 1007.7 - - - - - - - - -
14/03:30pm 27.7 N 8 9 1007.7 - - - - - - - - -
14/03:29pm 27.8 N 8 - 1008.0 - - - - - - - - -
14/03:00pm 27.7 N 8 9 1008.0 - - - - - - - - -
14/02:30pm 27.6 N 9 9 1008.3 - - - - - - - - -
14/02:29pm 27.6 N 9 - 1008.5 - - - - - - - - -
14/02:00pm 27.6 N 8 9 1008.5 - - - - - - - - -
14/01:30pm 27.3 N 8 9 1008.8 - - - - - - - - -
14/01:29pm 27.3 N 8 - 1009.1 - - - - - - - - -
14/01:00pm 27.4 N 10 11 1009.3 - - - - - - - - -
14/12:30pm 27.5 N 9 11 1009.7 - - - - - - - - -
14/12:29pm 27.4 N 9 - 1009.8 - - - - - - - - -
14/12:00pm 27.4 N 9 11 1009.9 - - - - - - - - -
14/11:30am 27.4 N 10 11 1009.9 - - - - - - - - -
14/11:29am 27.4 N 10 - 1010.0 - - - - - - - - -
14/11:00am 27.3 N 10 11 1010.0 - - - - - - - - -
14/10:30am 27.4 N 10 11 1010.1 - - - - - - - - -
14/10:29am 27.3 N 10 - 1010.2 - - - - - - - - -
14/10:00am 27.2 N 10 11 1010.3 - - - - - - - - -
14/09:30am 27.3 N 10 11 1010.2 - - - - - - - - -
14/09:29am 27.2 N 10 - 1010.3 - - - - - - - - -
14/09:00am 27.2 N 11 12 1010.1 - - - - - - - - -
14/08:30am 27.2 NNE 11 12 1010.2 - - - - - - - - -
14/08:29am 27.2 NNE 10 - 1010.3 - - - - - - - - -
14/08:00am 27.4 N 9 11 1010.4 - - - - - - - - -

Other Formats:

Comma delimited format used in spreadsheet applications
http://www.bom.gov.au/fwo/IDQ60701/IDQ60701.94379.axf

JavaScript Object Notation format (JSON) in row-major order
http://www.bom.gov.au/fwo/IDQ60701/IDQ60701.94379.json